createdAt,value
2022-08-31T00:01:06.322Z,45.20
2022-08-31T00:03:52.171Z,44.38
2022-08-31T00:06:20.848Z,44.71
2022-08-31T00:08:48.536Z,44.75
2022-08-31T00:11:16.836Z,44.05
2022-08-31T00:13:44.545Z,44.39
2022-08-31T00:16:13.044Z,44.11
2022-08-31T00:18:40.315Z,43.53
2022-08-31T00:21:07.504Z,43.78
2022-08-31T00:23:34.786Z,43.75
2022-08-31T00:26:01.940Z,43.49
2022-08-31T00:28:29.253Z,43.80
2022-08-31T00:30:56.530Z,43.89
2022-08-31T00:33:23.700Z,43.96
2022-08-31T00:35:50.878Z,42.88
2022-08-31T00:38:20.686Z,45.38
2022-08-31T00:40:48.946Z,42.73
2022-08-31T00:43:50.693Z,42.64
2022-08-31T00:46:31.396Z,44.28
2022-08-31T00:49:12.406Z,44.46
2022-08-31T00:51:56.992Z,42.92
2022-08-31T00:54:34.026Z,43.42
2022-08-31T00:57:03.573Z,43.79
2022-08-31T00:59:31.984Z,43.10
2022-08-31T01:01:59.797Z,43.27
2022-08-31T01:04:27.572Z,43.12
2022-08-31T01:06:54.875Z,46.28
2022-08-31T01:09:27.290Z,46.77
2022-08-31T01:11:54.690Z,46.97
2022-08-31T01:14:22.384Z,50.81
2022-08-31T01:16:58.336Z,58.10
2022-08-31T01:19:42.892Z,76.23
2022-08-31T01:22:28.691Z,100.00
2022-08-31T01:24:58.164Z,100.00
2022-08-31T01:27:31.542Z,100.00
2022-08-31T01:30:11.078Z,100.00
2022-08-31T01:32:39.878Z,100.00
2022-08-31T01:35:11.463Z,100.00
2022-08-31T01:37:39.402Z,100.00
2022-08-31T01:40:08.641Z,100.00
2022-08-31T01:42:36.916Z,100.00
2022-08-31T01:45:07.049Z,100.00
2022-08-31T01:47:34.849Z,100.00
2022-08-31T01:50:02.260Z,100.00
2022-08-31T01:52:30.137Z,100.00
2022-08-31T01:54:57.805Z,100.00
2022-08-31T01:57:33.419Z,100.00
2022-08-31T02:00:22.207Z,100.00
2022-08-31T02:02:49.754Z,100.00
2022-08-31T02:05:17.488Z,100.00
2022-08-31T02:07:46.169Z,100.00
2022-08-31T02:10:13.711Z,100.00
2022-08-31T02:12:41.205Z,100.00
2022-08-31T02:15:10.998Z,100.00
2022-08-31T02:17:39.754Z,100.00
2022-08-31T02:20:11.193Z,100.00
2022-08-31T02:22:38.473Z,100.00
2022-08-31T02:25:08.664Z,100.00
2022-08-31T02:27:38.726Z,100.00
2022-08-31T02:30:15.623Z,100.00
2022-08-31T02:32:43.109Z,100.00
2022-08-31T02:35:12.220Z,100.00
2022-08-31T02:37:39.555Z,100.00
2022-08-31T02:40:11.937Z,100.00
2022-08-31T02:42:53.489Z,100.00
2022-08-31T02:45:24.997Z,100.00
2022-08-31T02:47:55.360Z,100.00
2022-08-31T02:50:30.594Z,100.00
2022-08-31T02:53:00.102Z,100.00
2022-08-31T02:55:28.066Z,100.00
2022-08-31T02:57:55.391Z,100.00
2022-08-31T03:00:24.685Z,100.00
2022-08-31T03:02:52.164Z,100.00
2022-08-31T03:05:20.765Z,100.00
2022-08-31T03:07:50.011Z,100.00
2022-08-31T03:10:21.052Z,100.00
2022-08-31T03:12:50.894Z,100.00
2022-08-31T03:15:22.241Z,100.00
2022-08-31T03:17:50.160Z,100.00
2022-08-31T03:20:23.551Z,100.00
2022-08-31T03:22:51.172Z,100.00
2022-08-31T03:25:21.092Z,100.00
2022-08-31T03:27:50.830Z,100.00
2022-08-31T03:30:22.406Z,100.00
2022-08-31T03:33:11.110Z,100.00
2022-08-31T03:35:43.674Z,100.00
2022-08-31T03:38:13.981Z,100.00
2022-08-31T03:40:44.713Z,100.00
2022-08-31T03:43:14.223Z,100.00
2022-08-31T03:45:43.650Z,100.00
2022-08-31T03:48:13.202Z,100.00
2022-08-31T03:50:44.041Z,100.00
2022-08-31T03:53:22.613Z,100.00
2022-08-31T03:55:51.919Z,100.00
2022-08-31T03:58:19.506Z,100.00
2022-08-31T04:00:46.949Z,100.00
2022-08-31T04:03:36.038Z,100.00
2022-08-31T04:06:22.288Z,100.00
2022-08-31T04:09:08.214Z,100.00
2022-08-31T04:11:54.035Z,100.00
2022-08-31T04:14:40.384Z,100.00
2022-08-31T04:17:26.360Z,100.00
2022-08-31T04:20:05.586Z,100.00
2022-08-31T04:22:44.057Z,100.00
2022-08-31T04:25:22.959Z,100.00
2022-08-31T04:27:50.717Z,100.00
2022-08-31T04:30:20.901Z,100.00
2022-08-31T04:32:49.837Z,100.00
2022-08-31T04:35:17.720Z,100.00
2022-08-31T04:37:46.978Z,100.00
2022-08-31T04:40:21.393Z,100.00
2022-08-31T04:42:53.455Z,100.00
2022-08-31T04:45:24.416Z,100.00
2022-08-31T04:47:52.647Z,100.00
2022-08-31T04:50:19.930Z,100.00
2022-08-31T04:53:06.013Z,100.00
2022-08-31T04:55:33.983Z,100.00
2022-08-31T04:58:01.332Z,100.00
2022-08-31T05:00:28.722Z,100.00
2022-08-31T05:03:14.526Z,100.00
2022-08-31T05:05:42.731Z,100.00
2022-08-31T05:08:09.890Z,100.00
2022-08-31T05:10:37.577Z,100.00
2022-08-31T05:13:05.327Z,100.00
2022-08-31T05:15:33.904Z,100.00
2022-08-31T05:18:01.688Z,100.00
2022-08-31T05:20:33.086Z,100.00
2022-08-31T05:23:00.367Z,100.00
2022-08-31T05:25:27.903Z,100.00
2022-08-31T05:27:55.443Z,100.00
2022-08-31T05:30:23.590Z,100.00
2022-08-31T05:33:02.350Z,100.00
2022-08-31T05:35:31.233Z,100.00
2022-08-31T05:37:58.482Z,100.00
2022-08-31T05:40:27.341Z,100.00
2022-08-31T05:42:59.389Z,100.00
2022-08-31T05:45:26.853Z,100.00
2022-08-31T05:47:54.337Z,100.00
2022-08-31T05:50:22.168Z,100.00
2022-08-31T05:52:55.926Z,100.00
2022-08-31T05:55:24.463Z,100.00
2022-08-31T05:57:52.617Z,100.00
2022-08-31T06:00:19.957Z,100.00
2022-08-31T06:02:55.427Z,100.00
2022-08-31T06:05:23.297Z,100.00
2022-08-31T06:07:52.460Z,100.00
2022-08-31T06:10:20.889Z,100.00
2022-08-31T06:12:49.857Z,100.00
2022-08-31T06:15:18.039Z,100.00
2022-08-31T06:17:45.432Z,100.00
2022-08-31T06:20:17.785Z,100.00
2022-08-31T06:22:47.856Z,100.00
2022-08-31T06:25:24.791Z,100.00
2022-08-31T06:27:55.115Z,100.00
2022-08-31T06:30:27.185Z,100.00
2022-08-31T06:32:58.499Z,100.00
2022-08-31T06:35:30.093Z,100.00
2022-08-31T06:38:35.636Z,100.00
2022-08-31T06:41:39.508Z,100.00
2022-08-31T06:44:33.574Z,100.00
2022-08-31T06:47:15.447Z,100.00
2022-08-31T06:49:42.814Z,100.00
2022-08-31T06:52:10.523Z,100.00
2022-08-31T06:54:39.285Z,100.00
2022-08-31T06:57:25.036Z,100.00
2022-08-31T07:00:11.179Z,100.00
2022-08-31T07:03:22.941Z,100.00
2022-08-31T07:05:53.223Z,100.00
2022-08-31T07:08:22.097Z,100.00
2022-08-31T07:10:49.818Z,100.00
2022-08-31T07:13:17.115Z,100.00
2022-08-31T07:15:44.616Z,100.00
2022-08-31T07:18:13.051Z,100.00
2022-08-31T07:20:40.912Z,100.00
2022-08-31T07:23:11.064Z,100.00
2022-08-31T07:25:41.796Z,100.00
2022-08-31T07:28:11.064Z,100.00
2022-08-31T07:30:42.089Z,100.00
2022-08-31T07:33:11.998Z,100.00
2022-08-31T07:35:46.104Z,100.00
2022-08-31T07:38:39.126Z,100.00
2022-08-31T07:41:30.178Z,100.00
2022-08-31T07:43:59.436Z,100.00
2022-08-31T07:46:31.743Z,100.00
2022-08-31T07:49:01.271Z,100.00
2022-08-31T07:51:58.530Z,100.00
2022-08-31T07:54:37.966Z,100.00
2022-08-31T07:57:18.849Z,100.00
2022-08-31T07:59:49.549Z,100.00
2022-08-31T08:02:17.687Z,100.00
2022-08-31T08:04:45.318Z,100.00
2022-08-31T08:07:44.300Z,100.00
2022-08-31T08:10:56.946Z,100.00
2022-08-31T08:13:50.366Z,100.00
2022-08-31T08:16:24.067Z,100.00
2022-08-31T08:19:24.266Z,100.00
2022-08-31T08:21:52.026Z,100.00
2022-08-31T08:24:23.833Z,100.00
2022-08-31T08:27:01.358Z,100.00
2022-08-31T08:29:53.754Z,100.00
2022-08-31T08:32:31.300Z,100.00
2022-08-31T08:34:59.067Z,100.00
2022-08-31T08:37:54.278Z,100.00
2022-08-31T08:40:47.179Z,100.00
2022-08-31T08:43:18.405Z,100.00
2022-08-31T08:45:53.029Z,100.00
2022-08-31T08:48:32.683Z,100.00
2022-08-31T08:51:04.489Z,100.00
2022-08-31T08:53:45.985Z,100.00
2022-08-31T08:56:33.383Z,100.00
2022-08-31T08:59:02.220Z,100.00
2022-08-31T09:01:37.296Z,100.00
2022-08-31T09:04:17.380Z,100.00
2022-08-31T09:07:56.686Z,100.00
2022-08-31T09:11:02.189Z,100.00
2022-08-31T09:13:52.987Z,100.00
2022-08-31T09:17:09.816Z,94.37
2022-08-31T09:20:05.088Z,92.25
2022-08-31T09:22:57.243Z,94.99
2022-08-31T09:25:37.353Z,91.21
2022-08-31T09:28:44.775Z,88.57
2022-08-31T09:31:40.159Z,85.90
2022-08-31T09:34:30.724Z,84.25
2022-08-31T09:37:17.270Z,86.95
2022-08-31T09:39:49.517Z,86.64
2022-08-31T09:42:31.560Z,82.90
2022-08-31T09:45:14.172Z,84.12
2022-08-31T09:47:52.247Z,77.91
2022-08-31T09:50:45.379Z,80.87
2022-08-31T09:53:45.500Z,78.85
2022-08-31T09:56:19.750Z,80.55
2022-08-31T09:58:54.143Z,75.18
2022-08-31T10:01:39.665Z,67.12
2022-08-31T10:04:28.153Z,71.28
2022-08-31T10:07:50.353Z,70.14
2022-08-31T10:10:30.017Z,68.23
2022-08-31T10:13:27.829Z,66.13
2022-08-31T10:16:11.893Z,63.27
2022-08-31T10:19:54.783Z,61.60
2022-08-31T10:23:37.755Z,62.14
2022-08-31T10:27:20.527Z,61.38
2022-08-31T10:30:17.638Z,59.33
2022-08-31T10:34:19.291Z,59.03
2022-08-31T10:38:08.057Z,59.14
2022-08-31T10:40:50.003Z,56.42
2022-08-31T10:43:29.165Z,57.46
2022-08-31T10:47:22.925Z,56.50
2022-08-31T10:50:03.363Z,57.72
2022-08-31T10:53:47.187Z,53.99
2022-08-31T10:56:41.618Z,54.48
2022-08-31T11:00:44.477Z,53.93
2022-08-31T11:04:28.577Z,54.03
2022-08-31T11:07:34.360Z,52.02
2022-08-31T11:11:17.219Z,54.75
2022-08-31T11:15:00.753Z,56.55
2022-08-31T11:18:43.472Z,61.83
2022-08-31T11:22:34.310Z,62.49
2022-08-31T11:26:18.936Z,62.94
2022-08-31T11:29:13.744Z,63.59
2022-08-31T11:31:42.676Z,63.28
2022-08-31T11:34:25.704Z,65.68
2022-08-31T11:36:58.266Z,64.48
2022-08-31T11:39:46.072Z,65.47
2022-08-31T11:42:19.261Z,62.45
2022-08-31T11:45:29.911Z,63.01
2022-08-31T11:47:58.205Z,60.80
2022-08-31T11:50:40.320Z,58.33
2022-08-31T11:53:39.799Z,59.53
2022-08-31T11:56:09.148Z,59.50
2022-08-31T11:58:39.669Z,61.05
2022-08-31T12:01:11.292Z,61.72
2022-08-31T12:03:51.542Z,60.91
2022-08-31T12:06:25.067Z,61.66
2022-08-31T12:09:23.977Z,57.49
2022-08-31T12:12:33.195Z,57.48
2022-08-31T12:15:46.402Z,56.85
2022-08-31T12:19:35.633Z,55.57
2022-08-31T12:23:30.229Z,54.65
2022-08-31T12:26:45.308Z,60.92
2022-08-31T12:29:32.175Z,65.48
2022-08-31T12:33:14.571Z,60.37
2022-08-31T12:35:42.757Z,55.72
2022-08-31T12:38:24.142Z,57.57
2022-08-31T12:42:06.941Z,55.98
2022-08-31T12:45:50.079Z,55.27
2022-08-31T12:49:32.482Z,54.93
2022-08-31T12:53:15.070Z,53.01
2022-08-31T12:56:30.867Z,54.79
2022-08-31T12:59:19.026Z,49.83
2022-08-31T13:03:01.636Z,49.63
2022-08-31T13:05:35.609Z,49.84
2022-08-31T13:09:21.897Z,50.70
2022-08-31T13:11:56.545Z,49.30
2022-08-31T13:15:39.856Z,48.47
2022-08-31T13:18:22.112Z,47.84
2022-08-31T13:21:05.602Z,49.11
2022-08-31T13:23:42.850Z,45.83
2022-08-31T13:26:25.378Z,41.25
2022-08-31T13:29:07.676Z,38.37
2022-08-31T13:31:56.519Z,35.85
2022-08-31T13:34:24.841Z,34.76
2022-08-31T13:36:59.793Z,34.28
2022-08-31T13:39:34.982Z,33.77
2022-08-31T13:42:09.237Z,35.49
2022-08-31T13:44:42.294Z,36.08
2022-08-31T13:47:30.799Z,37.28
2022-08-31T13:50:23.069Z,36.31
2022-08-31T13:55:52.737Z,31.58
2022-08-31T13:58:31.553Z,31.88
2022-08-31T14:01:25.730Z,32.58
2022-08-31T14:03:59.931Z,32.18
2022-08-31T14:07:23.757Z,31.92
2022-08-31T14:10:49.711Z,32.22
2022-08-31T14:13:21.035Z,30.72
2022-08-31T14:15:53.497Z,28.34
2022-08-31T14:18:41.138Z,29.98
2022-08-31T14:21:26.385Z,30.27
2022-08-31T14:24:02.026Z,29.17
2022-08-31T14:27:25.898Z,28.42
2022-08-31T14:29:53.126Z,27.64
2022-08-31T14:32:21.987Z,26.17
2022-08-31T14:34:49.257Z,27.92
2022-08-31T14:37:23.034Z,27.83
2022-08-31T14:40:47.166Z,28.67
2022-08-31T14:43:17.955Z,28.22
2022-08-31T14:45:45.509Z,26.93
2022-08-31T14:49:09.393Z,26.30
2022-08-31T14:51:41.881Z,32.09
2022-08-31T14:54:11.400Z,34.49
2022-08-31T14:56:45.375Z,35.90
2022-08-31T14:59:16.128Z,36.55
2022-08-31T15:02:40.265Z,63.83
2022-08-31T15:05:09.803Z,84.77
2022-08-31T15:07:40.619Z,100.00
2022-08-31T15:10:13.844Z,100.00
2022-08-31T15:12:41.238Z,100.00
2022-08-31T15:15:09.785Z,100.00
2022-08-31T15:17:39.600Z,100.00
2022-08-31T15:20:11.684Z,100.00
2022-08-31T15:22:40.972Z,100.00
2022-08-31T15:25:12.337Z,100.00
2022-08-31T15:27:44.106Z,100.00
2022-08-31T15:30:14.750Z,100.00
2022-08-31T15:32:46.647Z,100.00
2022-08-31T15:35:19.128Z,100.00
2022-08-31T15:37:56.377Z,100.00
2022-08-31T15:40:25.435Z,100.00
2022-08-31T15:42:57.195Z,100.00
2022-08-31T15:45:28.245Z,100.00
2022-08-31T15:48:14.271Z,100.00
2022-08-31T15:50:52.729Z,100.00
2022-08-31T15:53:23.753Z,100.00
2022-08-31T15:55:51.731Z,100.00
2022-08-31T15:58:24.454Z,100.00
2022-08-31T16:00:52.282Z,100.00
2022-08-31T16:03:19.399Z,100.00
2022-08-31T16:05:46.456Z,100.00
2022-08-31T16:08:14.080Z,100.00
2022-08-31T16:10:46.339Z,100.00
2022-08-31T16:13:16.139Z,100.00
2022-08-31T16:15:51.256Z,100.00
2022-08-31T16:18:22.742Z,100.00
2022-08-31T16:20:51.700Z,100.00
2022-08-31T16:23:20.944Z,100.00
2022-08-31T16:25:49.348Z,100.00
2022-08-31T16:28:22.027Z,100.00
2022-08-31T16:30:51.663Z,100.00
2022-08-31T16:33:20.111Z,100.00
2022-08-31T16:35:47.926Z,100.00
2022-08-31T16:38:15.383Z,100.00
2022-08-31T16:40:43.222Z,100.00
2022-08-31T16:43:11.538Z,100.00
2022-08-31T16:45:40.738Z,100.00
2022-08-31T16:48:29.683Z,100.00
2022-08-31T16:51:02.086Z,100.00
2022-08-31T16:53:31.211Z,100.00
2022-08-31T16:55:59.797Z,100.00
2022-08-31T16:58:50.477Z,100.00
2022-08-31T17:01:24.387Z,100.00
2022-08-31T17:04:11.277Z,100.00
2022-08-31T17:06:41.388Z,100.00
2022-08-31T17:09:14.558Z,100.00
2022-08-31T17:12:07.594Z,100.00
2022-08-31T17:14:46.421Z,100.00
2022-08-31T17:17:21.019Z,100.00
2022-08-31T17:19:48.765Z,100.00
2022-08-31T17:22:30.069Z,100.00
2022-08-31T17:25:02.887Z,100.00
2022-08-31T17:27:33.405Z,100.00
2022-08-31T17:30:05.217Z,100.00
2022-08-31T17:32:32.606Z,100.00
2022-08-31T17:34:59.720Z,100.00
2022-08-31T17:37:36.132Z,100.00
2022-08-31T17:40:09.001Z,100.00
2022-08-31T17:42:36.619Z,100.00
2022-08-31T17:45:06.342Z,100.00
2022-08-31T17:47:34.197Z,100.00
2022-08-31T17:50:01.859Z,100.00
2022-08-31T17:52:31.793Z,100.00
2022-08-31T17:55:00.286Z,100.00
2022-08-31T17:57:29.250Z,100.00
2022-08-31T17:59:56.649Z,100.00
2022-08-31T18:02:32.331Z,100.00
2022-08-31T18:05:01.718Z,100.00
2022-08-31T18:07:29.138Z,100.00
2022-08-31T18:09:56.960Z,100.00
2022-08-31T18:12:25.609Z,100.00
2022-08-31T18:14:54.278Z,100.00
2022-08-31T18:17:22.482Z,100.00
2022-08-31T18:19:49.938Z,100.00
2022-08-31T18:22:19.805Z,100.00
2022-08-31T18:24:47.050Z,100.00
2022-08-31T18:27:17.346Z,100.00
2022-08-31T18:29:45.264Z,100.00
2022-08-31T18:32:13.773Z,100.00
2022-08-31T18:34:47.456Z,100.00
2022-08-31T18:37:21.906Z,100.00
2022-08-31T18:40:08.669Z,100.00
2022-08-31T18:42:56.920Z,100.00
2022-08-31T18:45:26.946Z,100.00
2022-08-31T18:50:49.573Z,100.00
2022-08-31T18:53:27.579Z,100.00
2022-08-31T18:56:05.118Z,100.00
2022-08-31T18:58:32.695Z,100.00
2022-08-31T19:01:00.032Z,100.00
2022-08-31T19:03:28.301Z,100.00
2022-08-31T19:05:56.763Z,100.00
2022-08-31T19:08:26.172Z,100.00
2022-08-31T19:10:54.815Z,100.00
2022-08-31T19:13:21.938Z,100.00
2022-08-31T19:15:49.250Z,100.00
2022-08-31T19:18:17.022Z,100.00
2022-08-31T19:20:44.297Z,100.00
2022-08-31T19:23:12.966Z,100.00
2022-08-31T19:25:45.188Z,100.00
2022-08-31T19:28:12.304Z,100.00
2022-08-31T19:30:39.709Z,100.00
2022-08-31T19:33:08.264Z,100.00
2022-08-31T19:35:36.519Z,100.00
2022-08-31T19:38:04.797Z,100.00
2022-08-31T19:40:39.398Z,100.00
2022-08-31T19:45:54.593Z,100.00
2022-08-31T19:48:23.599Z,100.00
2022-08-31T19:50:52.094Z,100.00
2022-08-31T19:53:21.555Z,100.00
2022-08-31T19:55:51.503Z,100.00
2022-08-31T19:58:25.287Z,100.00
2022-08-31T20:01:03.960Z,100.00
2022-08-31T20:03:33.918Z,100.00
2022-08-31T20:06:12.538Z,100.00
2022-08-31T20:08:41.835Z,100.00
2022-08-31T20:11:12.074Z,100.00
2022-08-31T20:13:41.184Z,100.00
2022-08-31T20:16:11.945Z,100.00
2022-08-31T20:18:46.199Z,100.00
2022-08-31T20:21:23.412Z,100.00
2022-08-31T20:23:54.538Z,100.00
2022-08-31T20:26:27.889Z,100.00
2022-08-31T20:29:08.837Z,100.00
2022-08-31T20:31:43.475Z,100.00
2022-08-31T20:34:19.216Z,100.00
2022-08-31T20:36:50.000Z,100.00
2022-08-31T20:39:19.763Z,100.00
2022-08-31T20:41:50.218Z,100.00
2022-08-31T20:44:20.232Z,100.00
2022-08-31T20:47:29.043Z,100.00
2022-08-31T20:50:02.301Z,100.00
2022-08-31T20:52:39.062Z,100.00
2022-08-31T20:55:08.257Z,100.00
2022-08-31T20:57:38.506Z,100.00
2022-08-31T21:00:10.327Z,100.00
2022-08-31T21:02:41.335Z,100.00
2022-08-31T21:05:37.440Z,100.00
2022-08-31T21:07:59.489Z,100.00
2022-08-31T21:10:36.594Z,100.00
2022-08-31T21:13:08.660Z,100.00
2022-08-31T21:15:44.330Z,100.00
2022-08-31T21:18:17.226Z,100.00
2022-08-31T21:20:46.220Z,100.00
2022-08-31T21:23:13.521Z,100.00
2022-08-31T21:25:45.992Z,100.00
2022-08-31T21:28:18.065Z,100.00
2022-08-31T21:30:49.211Z,100.00
2022-08-31T21:33:16.772Z,100.00
2022-08-31T21:35:43.769Z,100.00
2022-08-31T21:38:12.883Z,100.00
2022-08-31T21:40:48.151Z,100.00
2022-08-31T21:43:15.832Z,100.00
2022-08-31T21:45:42.930Z,100.00
2022-08-31T21:48:10.144Z,100.00
2022-08-31T21:50:37.778Z,100.00
2022-08-31T21:53:05.411Z,100.00
2022-08-31T21:55:38.591Z,100.00
2022-08-31T21:58:05.772Z,100.00
2022-08-31T22:00:34.337Z,100.00
2022-08-31T22:03:01.978Z,100.00
2022-08-31T22:05:30.873Z,100.00
2022-08-31T22:07:57.929Z,100.00
2022-08-31T22:10:24.997Z,100.00
2022-08-31T22:12:52.083Z,100.00
2022-08-31T22:15:23.915Z,100.00
2022-08-31T22:18:18.362Z,100.00
2022-08-31T22:20:42.220Z,100.00
2022-08-31T22:23:11.088Z,100.00
2022-08-31T22:25:38.601Z,100.00
2022-08-31T22:28:07.299Z,100.00
2022-08-31T22:30:36.224Z,100.00
2022-08-31T22:33:04.294Z,100.00
2022-08-31T22:35:31.448Z,100.00
2022-08-31T22:37:58.535Z,100.00
2022-08-31T22:40:25.807Z,100.00
2022-08-31T22:42:54.729Z,100.00
2022-08-31T22:45:23.706Z,100.00
2022-08-31T22:47:51.125Z,100.00
2022-08-31T22:50:18.547Z,100.00
2022-08-31T22:52:49.989Z,100.00
2022-08-31T22:55:18.192Z,100.00
2022-08-31T22:57:45.412Z,100.00
2022-08-31T23:00:13.122Z,100.00
2022-08-31T23:02:45.102Z,100.00
2022-08-31T23:05:18.453Z,100.00
2022-08-31T23:07:45.605Z,100.00
2022-08-31T23:10:18.486Z,100.00
2022-08-31T23:12:51.097Z,100.00
2022-08-31T23:15:19.075Z,100.00
2022-08-31T23:17:50.141Z,100.00
2022-08-31T23:20:24.114Z,100.00
2022-08-31T23:22:53.295Z,100.00
2022-08-31T23:25:23.440Z,100.00
2022-08-31T23:27:51.605Z,100.00
2022-08-31T23:30:22.538Z,100.00
2022-08-31T23:32:50.549Z,100.00
2022-08-31T23:35:18.419Z,100.00
2022-08-31T23:37:46.770Z,100.00
2022-08-31T23:40:15.985Z,100.00
2022-08-31T23:42:43.332Z,100.00
2022-08-31T23:45:12.597Z,100.00
2022-08-31T23:47:40.372Z,100.00
2022-08-31T23:50:09.833Z,100.00
2022-08-31T23:52:41.478Z,100.00
2022-08-31T23:55:11.019Z,100.00
2022-08-31T23:57:39.473Z,100.00
